createdAt,value
2022-10-15T00:01:18.414Z,93427.03
2022-10-15T00:03:47.064Z,93398.81
2022-10-15T00:06:16.593Z,93449.75
2022-10-15T00:08:43.816Z,93447.13
2022-10-15T00:11:13.806Z,93432.97
2022-10-15T00:13:40.958Z,93408.72
2022-10-15T00:16:10.894Z,93452.66
2022-10-15T00:18:37.393Z,93409.72
2022-10-15T00:21:07.036Z,93393.09
2022-10-15T00:23:33.760Z,93455.69
2022-10-15T00:26:06.135Z,93433.44
2022-10-15T00:28:34.371Z,93420.88
2022-10-15T00:33:30.300Z,93442.72
2022-10-15T00:36:08.692Z,93450.34
2022-10-15T00:38:35.731Z,93402.19
2022-10-15T00:41:04.022Z,93442.63
2022-10-15T00:43:46.194Z,93414.28
2022-10-15T00:46:22.755Z,93452.63
2022-10-15T00:48:54.942Z,93434.63
2022-10-15T00:51:23.780Z,93402.88
2022-10-15T00:53:50.716Z,93423.41
2022-10-15T00:56:21.347Z,93395.78
2022-10-15T00:58:48.822Z,93437.06
2022-10-15T01:01:15.412Z,93364.25
2022-10-15T01:03:42.999Z,93443.38
2022-10-15T01:06:09.442Z,93409.56
2022-10-15T01:08:35.923Z,93409.03
2022-10-15T01:11:23.480Z,93438.16
2022-10-15T01:14:10.232Z,93438.69
2022-10-15T01:17:02.058Z,93367.59
2022-10-15T01:19:38.999Z,93401.00
2022-10-15T01:22:16.459Z,93423.53
2022-10-15T01:24:57.101Z,93404.09
2022-10-15T01:27:30.242Z,93439.56
2022-10-15T01:30:19.792Z,93430.25
2022-10-15T01:33:07.235Z,93424.56
2022-10-15T01:35:48.774Z,93434.72
2022-10-15T01:38:27.403Z,93424.66
2022-10-15T01:40:58.783Z,93420.00
2022-10-15T01:43:32.079Z,93412.22
2022-10-15T01:46:06.406Z,93410.09
2022-10-15T01:48:34.739Z,93416.16
2022-10-15T01:51:03.630Z,93386.28
2022-10-15T01:53:34.130Z,93403.78
2022-10-15T01:56:06.223Z,93416.41
2022-10-15T01:58:35.834Z,93401.38
2022-10-15T02:01:02.705Z,93391.97
2022-10-15T02:03:29.201Z,93406.34
2022-10-15T02:06:05.772Z,93400.53
2022-10-15T02:08:41.369Z,93412.63
2022-10-15T02:11:14.509Z,93409.00
2022-10-15T02:14:15.269Z,93414.91
2022-10-15T02:16:54.831Z,93406.19
2022-10-15T02:19:39.458Z,93429.59
2022-10-15T02:22:17.663Z,93401.56
2022-10-15T02:24:58.563Z,93433.31
2022-10-15T02:27:28.172Z,93411.53
2022-10-15T02:29:57.041Z,93402.38
2022-10-15T02:32:26.316Z,93395.00
2022-10-15T02:34:54.443Z,93394.19
2022-10-15T02:37:24.350Z,93414.66
2022-10-15T02:39:50.901Z,93424.63
2022-10-15T02:42:18.319Z,93399.63
2022-10-15T02:44:45.154Z,93389.25
2022-10-15T02:47:11.699Z,93413.91
2022-10-15T02:49:38.255Z,93403.44
2022-10-15T02:52:04.868Z,93411.00
2022-10-15T02:54:31.302Z,93368.78
2022-10-15T02:56:57.686Z,93394.72
2022-10-15T02:59:24.517Z,93399.88
2022-10-15T03:01:50.903Z,93407.84
2022-10-15T03:04:17.370Z,93400.72
2022-10-15T03:06:43.811Z,93389.16
2022-10-15T03:09:10.203Z,93406.75
2022-10-15T03:11:38.347Z,93405.53
2022-10-15T03:14:04.776Z,93381.44
2022-10-15T03:16:31.186Z,93386.69
2022-10-15T03:18:57.589Z,93394.81
2022-10-15T03:21:23.974Z,93410.88
2022-10-15T03:23:50.401Z,93426.66
2022-10-15T03:26:16.823Z,93389.44
2022-10-15T03:28:43.266Z,93385.66
2022-10-15T03:31:09.782Z,93383.75
2022-10-15T03:33:36.216Z,93381.22
2022-10-15T03:36:02.689Z,93374.16
2022-10-15T03:38:29.114Z,93397.47
2022-10-15T03:40:55.484Z,93389.66
2022-10-15T03:43:25.438Z,93407.69
2022-10-15T03:45:52.492Z,93391.28
2022-10-15T03:48:19.824Z,93406.91
2022-10-15T03:50:46.982Z,93402.44
2022-10-15T03:53:13.460Z,93400.72
2022-10-15T03:55:39.909Z,93376.22
2022-10-15T03:58:06.454Z,93387.38
2022-10-15T04:00:32.976Z,93420.50
2022-10-15T04:02:59.438Z,93386.38
2022-10-15T04:05:25.990Z,93424.38
2022-10-15T04:07:52.363Z,93404.19
2022-10-15T04:10:21.759Z,93394.00
2022-10-15T04:12:59.369Z,93411.38
2022-10-15T04:15:27.753Z,93404.97
2022-10-15T04:17:57.153Z,93402.13
2022-10-15T04:20:25.614Z,93388.31
2022-10-15T04:22:52.009Z,93428.03
2022-10-15T04:25:18.486Z,93392.88
2022-10-15T04:27:44.912Z,93390.81
2022-10-15T04:30:12.292Z,93364.56
2022-10-15T04:32:38.791Z,93413.41
2022-10-15T04:35:06.002Z,93440.47
2022-10-15T04:37:35.946Z,93407.69
2022-10-15T04:40:04.852Z,93446.53
2022-10-15T04:42:31.625Z,93442.19
2022-10-15T04:44:58.024Z,93422.09
2022-10-15T04:47:24.857Z,93401.09
2022-10-15T04:49:51.536Z,93418.78
2022-10-15T04:52:17.922Z,93415.94
2022-10-15T04:54:44.333Z,93400.53
2022-10-15T04:57:10.783Z,93359.09
2022-10-15T04:59:37.262Z,93354.50
2022-10-15T05:02:08.094Z,93445.59
2022-10-15T05:04:34.758Z,93420.94
2022-10-15T05:07:01.203Z,93464.09
2022-10-15T05:09:27.664Z,93426.41
2022-10-15T05:11:55.856Z,93430.97
2022-10-15T05:14:22.924Z,93429.63
2022-10-15T05:16:51.512Z,93446.72
2022-10-15T05:19:18.051Z,93414.16
2022-10-15T05:21:44.892Z,93421.56
2022-10-15T05:24:11.444Z,93464.75
2022-10-15T05:26:38.075Z,93450.13
2022-10-15T05:29:04.741Z,93458.94
2022-10-15T05:31:41.339Z,93458.78
2022-10-15T05:34:09.018Z,93472.78
2022-10-15T05:36:37.028Z,93472.41
2022-10-15T05:39:07.005Z,93439.44
2022-10-15T05:41:36.676Z,93455.06
2022-10-15T05:44:03.135Z,93481.69
2022-10-15T05:46:29.580Z,93456.31
2022-10-15T05:49:05.101Z,93453.69
2022-10-15T05:51:31.520Z,93456.31
2022-10-15T05:53:59.347Z,93477.00
2022-10-15T05:56:26.613Z,93464.09
2022-10-15T05:58:56.305Z,93476.38
2022-10-15T06:01:23.125Z,93475.38
2022-10-15T06:03:50.529Z,93450.84
2022-10-15T06:06:22.861Z,93472.09
2022-10-15T06:08:50.671Z,93497.09
2022-10-15T06:11:18.772Z,93503.59
2022-10-15T06:13:46.591Z,93496.53
2022-10-15T06:16:16.583Z,93503.63
2022-10-15T06:18:45.948Z,93486.25
2022-10-15T06:21:12.801Z,93465.69
2022-10-15T06:23:39.528Z,93517.22
2022-10-15T06:26:09.232Z,93476.78
2022-10-15T06:28:36.991Z,93510.22
2022-10-15T06:31:04.727Z,93528.50
2022-10-15T06:33:31.485Z,93485.34
2022-10-15T06:36:06.869Z,93506.03
2022-10-15T06:38:33.533Z,93490.34
2022-10-15T06:41:00.307Z,93518.66
2022-10-15T06:43:28.791Z,93543.13
2022-10-15T06:45:58.949Z,93560.03
2022-10-15T06:48:25.437Z,93556.50
2022-10-15T06:50:51.872Z,93506.81
2022-10-15T06:53:18.299Z,93498.56
2022-10-15T06:55:44.735Z,93523.97
2022-10-15T06:58:11.128Z,93548.22
2022-10-15T07:00:37.561Z,93533.13
2022-10-15T07:03:05.608Z,93515.03
2022-10-15T07:05:32.466Z,93526.97
2022-10-15T07:07:59.936Z,93553.91
2022-10-15T07:10:27.880Z,93554.81
2022-10-15T07:12:55.000Z,93524.44
2022-10-15T07:15:22.760Z,93554.97
2022-10-15T07:17:51.185Z,93539.50
2022-10-15T07:20:21.785Z,93576.09
2022-10-15T07:22:51.977Z,93512.88
2022-10-15T07:25:18.487Z,93564.88
2022-10-15T07:27:44.888Z,93575.75
2022-10-15T07:30:11.524Z,93592.53
2022-10-15T07:32:37.958Z,93582.28
2022-10-15T07:35:06.012Z,93562.81
2022-10-15T07:37:35.531Z,93585.00
2022-10-15T07:40:07.200Z,93585.22
2022-10-15T07:42:33.598Z,93560.06
2022-10-15T07:45:00.015Z,93536.25
2022-10-15T07:47:26.732Z,93569.44
2022-10-15T07:49:53.218Z,93582.28
2022-10-15T07:52:19.612Z,93563.97
2022-10-15T07:54:46.035Z,93540.00
2022-10-15T07:57:12.459Z,93599.50
2022-10-15T07:59:38.926Z,93596.34
2022-10-15T08:02:05.359Z,93612.00
2022-10-15T08:04:35.132Z,93601.00
2022-10-15T08:07:01.907Z,93622.69
2022-10-15T08:09:28.439Z,93619.06
2022-10-15T08:11:54.993Z,93592.09
2022-10-15T08:14:21.382Z,93628.19
2022-10-15T08:16:47.864Z,93636.38
2022-10-15T08:19:17.766Z,93609.22
2022-10-15T08:21:47.563Z,93602.81
2022-10-15T08:24:30.261Z,93592.53
2022-10-15T08:26:59.757Z,93619.16
2022-10-15T08:29:26.280Z,93622.22
2022-10-15T08:31:52.706Z,93614.16
2022-10-15T08:34:19.106Z,93587.16
2022-10-15T08:36:45.492Z,93597.38
2022-10-15T08:39:23.109Z,93587.97
2022-10-15T08:41:59.414Z,93615.59
2022-10-15T08:44:33.814Z,93605.66
2022-10-15T08:47:28.829Z,93609.16
2022-10-15T08:49:58.390Z,93604.13
2022-10-15T08:52:33.947Z,93622.03
2022-10-15T08:55:01.648Z,93609.06
2022-10-15T08:57:53.071Z,93629.84
2022-10-15T09:00:42.766Z,93629.06
2022-10-15T09:03:53.968Z,93623.22
2022-10-15T09:06:53.065Z,93629.72
2022-10-15T09:09:31.448Z,93614.69
2022-10-15T09:12:16.715Z,93643.78
2022-10-15T09:14:46.243Z,93638.91
2022-10-15T09:17:27.223Z,93630.66
2022-10-15T09:20:05.252Z,93616.28
2022-10-15T09:22:33.804Z,93648.88
2022-10-15T09:25:22.097Z,93640.44
2022-10-15T09:27:51.195Z,93647.03
2022-10-15T09:30:45.710Z,93636.75
2022-10-15T09:33:35.611Z,93632.88
2022-10-15T09:36:35.346Z,93639.59
2022-10-15T09:39:22.023Z,93612.28
2022-10-15T09:42:08.083Z,93608.84
2022-10-15T09:44:40.296Z,93619.63
2022-10-15T09:47:26.701Z,93636.09
2022-10-15T09:49:53.186Z,93638.06
2022-10-15T09:52:47.188Z,93647.44
2022-10-15T09:55:31.896Z,93658.59
2022-10-15T09:58:03.680Z,93615.50
2022-10-15T10:00:54.138Z,93643.63
2022-10-15T10:03:23.427Z,93613.72
2022-10-15T10:05:50.722Z,93610.38
2022-10-15T18:41:29.987Z,93713.56
2022-10-15T18:43:59.226Z,93730.59
2022-10-15T18:46:27.525Z,93716.91
2022-10-15T18:48:55.034Z,93737.97
2022-10-15T18:51:21.883Z,93756.41
2022-10-15T18:53:48.709Z,93746.59
2022-10-15T18:56:15.220Z,93724.75
2022-10-15T18:58:45.443Z,93744.88
2022-10-15T19:01:11.918Z,93752.63
2022-10-15T19:03:38.727Z,93739.38
2022-10-15T19:06:05.308Z,93762.94
2022-10-15T19:08:31.756Z,93735.91
2022-10-15T19:11:08.670Z,93754.72
2022-10-15T19:13:36.513Z,93740.03
2022-10-15T19:16:04.473Z,93750.59
2022-10-15T19:18:31.892Z,93742.81
2022-10-15T19:20:58.711Z,93748.13
2022-10-15T20:12:21.850Z,93775.63
2022-10-15T20:14:48.324Z,93797.00
2022-10-15T20:17:14.716Z,93798.47
2022-10-15T20:19:41.108Z,93793.38
2022-10-15T20:22:07.503Z,93794.63
2022-10-15T20:24:33.902Z,93785.81
2022-10-15T20:27:00.632Z,93792.44
2022-10-15T20:29:27.148Z,93773.75
2022-10-15T20:32:02.036Z,93784.41
2022-10-15T20:34:37.574Z,93775.47
2022-10-15T20:37:04.000Z,93800.56
2022-10-15T20:39:30.480Z,93787.56
2022-10-15T20:41:56.952Z,93791.38
2022-10-15T20:44:23.387Z,93791.84
2022-10-15T20:46:57.350Z,93810.56
2022-10-15T20:49:33.328Z,93836.31
2022-10-15T20:51:59.846Z,93805.44
2022-10-15T20:54:26.489Z,93828.06
2022-10-15T20:56:53.002Z,93832.13
2022-10-15T20:59:19.394Z,93814.09
2022-10-15T21:01:46.879Z,93835.84
2022-10-15T21:04:14.323Z,93817.84
2022-10-15T21:06:40.721Z,93823.31
2022-10-15T21:09:07.367Z,93835.81
2022-10-15T21:11:33.910Z,93825.56
2022-10-15T21:14:01.426Z,93826.44
2022-10-15T21:16:28.568Z,93844.91
2022-10-15T21:18:55.204Z,93853.75
2022-10-15T21:21:21.606Z,93845.53
2022-10-15T21:23:47.987Z,93859.44
2022-10-15T21:26:16.856Z,93854.56
2022-10-15T21:28:45.082Z,93859.00
2022-10-15T21:31:17.224Z,93863.13
2022-10-15T21:33:44.334Z,93863.88
2022-10-15T21:36:26.300Z,93848.22
2022-10-15T21:39:00.937Z,93844.22
2022-10-15T21:41:30.653Z,93831.13
2022-10-15T21:43:58.163Z,93839.47
2022-10-15T21:46:27.927Z,93856.72
2022-10-15T21:48:54.636Z,93820.75
2022-10-15T21:51:26.812Z,93857.84
2022-10-15T21:53:54.959Z,93864.63
2022-10-15T21:56:22.230Z,93843.75
2022-10-15T21:58:49.168Z,93841.72
2022-10-15T22:01:24.356Z,93869.09
2022-10-15T22:03:53.361Z,93843.81
2022-10-15T22:06:20.991Z,93855.53
2022-10-15T22:08:47.719Z,93869.22
2022-10-15T22:13:56.397Z,93859.59
2022-10-15T22:16:24.404Z,93853.19
2022-10-15T22:18:51.270Z,93889.34
2022-10-15T22:21:27.815Z,93884.91
2022-10-15T22:24:12.810Z,93885.59
2022-10-15T22:26:45.469Z,93890.22
2022-10-15T22:29:21.227Z,93873.22
2022-10-15T22:31:48.575Z,93889.72
2022-10-15T22:34:15.143Z,93863.94
2022-10-15T22:36:41.642Z,93844.94
2022-10-15T22:39:10.332Z,93892.59
2022-10-15T22:41:42.116Z,93900.69
2022-10-15T22:44:17.572Z,93900.28
2022-10-15T22:46:49.233Z,93862.25
2022-10-15T22:49:17.906Z,93841.38
2022-10-15T22:51:44.315Z,93843.56
2022-10-15T22:54:10.822Z,93870.06
2022-10-15T22:56:37.863Z,93861.28
2022-10-15T22:59:04.465Z,93864.47
2022-10-15T23:01:33.108Z,93859.28
2022-10-15T23:04:02.105Z,93855.84
2022-10-15T23:06:29.844Z,93866.53
2022-10-15T23:08:58.023Z,93854.06
2022-10-15T23:11:29.781Z,93879.81
2022-10-15T23:14:09.616Z,93875.00
2022-10-15T23:16:38.867Z,93887.88
2022-10-15T23:19:08.195Z,93891.31
2022-10-15T23:21:41.835Z,93854.91
2022-10-15T23:24:08.617Z,93899.16
2022-10-15T23:26:36.702Z,93884.63
2022-10-15T23:29:04.768Z,93898.72
2022-10-15T23:31:33.506Z,93909.19
2022-10-15T23:34:01.299Z,93903.56
2022-10-15T23:36:29.069Z,93896.69
2022-10-15T23:39:00.690Z,93896.28
2022-10-15T23:41:28.697Z,93875.38
2022-10-15T23:43:55.614Z,93880.63
2022-10-15T23:46:22.759Z,93904.75
2022-10-15T23:48:49.487Z,93871.34
2022-10-15T23:51:18.886Z,93909.97
2022-10-15T23:53:45.574Z,93905.13
2022-10-15T23:56:13.559Z,93898.66
2022-10-15T23:58:40.394Z,93903.06
